Pagrindinis puslapis
METAR-TAF:

METAR-TAF

Oro uostai :

South Naknek, Aliaska, Jungtinės Amerikos Valstijos

platuma: 58-42-08N, ilguma: 157-00-09W, Aukštis: 49 m

Dabartinis oras

Ataskaita buvo paskelbta 1 valandą ir 5 minutes, ne 03:56 UTC
Vėjas 10 kt iš Rytų/Pietryčių
Temperatūra 0°C
Drėgmė 100%
Slėgis 1002 hPa
Matomumas: 16.1 km
Su prošvaistėmis ne aukštis 5000 ft
Apsiniaukę ne aukštis 9000 ft

METAR: PFWS 170356Z AUTO 12010KT 10SM BKN050 OVC090 00/00 A2960 RMK AO2 UPE0259 SLP069 P0000 T00000000 FZRANO

Laikas: 20:01 (05:01 UTC)


TAF: trūkstamas

Orai ataskaitas ir orų prognozės (METAR, TAF).

turimą stotys yra geltonos ir raudonos taškus žemėlapyje.

Perkelti pele per norėdami pamatyti stoties vardą.

Tada spustelėkite, norėdami matyti oro stebėjimo ir prognozės.

Norėdami pakeisti žemėlapį: spustelėkite ant žalios mygtukų su juodo kryžiaus žemyn,; žalią mygtuką su brūkšneliu, jei norite nutolinti; arba žalių rodyklių gretimoms žemėlapius.


METAR-TAF: